createdAt,value
2017-04-28T00:00:34.218Z,69
2017-04-28T00:01:34.983Z,69
2017-04-28T00:02:35.746Z,69
2017-04-28T00:03:36.510Z,70
2017-04-28T00:04:37.525Z,69
2017-04-28T00:05:38.288Z,69
2017-04-28T00:06:39.055Z,69
2017-04-28T00:07:39.818Z,69
2017-04-28T00:08:40.581Z,69
2017-04-28T00:09:41.595Z,69
2017-04-28T00:10:42.361Z,69
2017-04-28T00:11:43.123Z,69
2017-04-28T00:12:43.886Z,69
2017-04-28T00:13:44.651Z,69
2017-04-28T00:14:45.666Z,69
2017-04-28T00:15:46.435Z,69
2017-04-28T00:16:47.202Z,68
2017-04-28T00:17:47.961Z,68
2017-04-28T00:18:48.725Z,69
2017-04-28T00:19:49.740Z,69
2017-04-28T00:20:50.504Z,69
2017-04-28T00:21:51.268Z,69
2017-04-28T00:22:52.030Z,69
2017-04-28T00:23:52.794Z,69
2017-04-28T00:24:53.810Z,69
2017-04-28T00:25:54.574Z,69
2017-04-28T00:26:55.334Z,69
2017-04-28T00:27:56.101Z,69
2017-04-28T00:28:56.865Z,69
2017-04-28T00:29:57.880Z,69
2017-04-28T00:30:58.643Z,69
2017-04-28T00:31:59.413Z,69
2017-04-28T00:33:00.364Z,69
2017-04-28T00:34:01.128Z,69
2017-04-28T00:35:02.147Z,69
2017-04-28T00:36:02.911Z,68
2017-04-28T00:37:03.676Z,69
2017-04-28T00:38:04.440Z,69
2017-04-28T00:39:05.206Z,69
2017-04-28T00:40:06.220Z,69
2017-04-28T00:41:06.983Z,69
2017-04-28T00:42:07.747Z,69
2017-04-28T00:43:08.511Z,69
2017-04-28T00:44:09.273Z,69
2017-04-28T00:45:10.287Z,69
2017-04-28T00:46:11.052Z,69
2017-04-28T00:47:11.817Z,68
2017-04-28T00:48:16.696Z,69
2017-04-28T00:49:17.711Z,68
2017-04-28T00:50:18.476Z,68
2017-04-28T00:51:19.236Z,68
2017-04-28T00:52:19.998Z,68
2017-04-28T00:53:20.764Z,68
2017-04-28T00:54:21.780Z,68
2017-04-28T00:55:22.542Z,68
2017-04-28T00:56:23.492Z,68
2017-04-28T00:57:24.257Z,68
2017-04-28T00:58:25.022Z,69
2017-04-28T00:59:26.037Z,69
2017-04-28T01:00:26.798Z,68
2017-04-28T01:01:27.564Z,69
2017-04-28T01:02:28.329Z,69
2017-04-28T01:03:29.096Z,69
2017-04-28T01:04:30.110Z,69
2017-04-28T01:05:30.876Z,69
2017-04-28T01:06:31.644Z,69
2017-04-28T01:07:32.407Z,69
2017-04-28T01:08:33.170Z,69
2017-04-28T01:09:34.183Z,69
2017-04-28T01:10:34.942Z,69
2017-04-28T01:11:35.711Z,69
2017-04-28T01:12:36.478Z,69
2017-04-28T01:13:37.242Z,69
2017-04-28T01:14:38.258Z,70
2017-04-28T01:15:39.022Z,69
2017-04-28T01:16:39.787Z,70
2017-04-28T01:17:40.554Z,70
2017-04-28T01:18:41.316Z,70
2017-04-28T01:19:42.332Z,70
2017-04-28T01:20:43.096Z,70
2017-04-28T01:21:43.861Z,71
2017-04-28T01:22:44.624Z,71
2017-04-28T01:23:45.387Z,71
2017-04-28T01:24:46.404Z,71
2017-04-28T01:25:47.168Z,71
2017-04-28T01:26:47.932Z,71
2017-04-28T01:27:48.699Z,71
2017-04-28T01:28:49.462Z,71
2017-04-28T01:29:50.475Z,71
2017-04-28T01:30:51.240Z,71
2017-04-28T01:31:52.004Z,72
2017-04-28T01:32:52.768Z,72
2017-04-28T01:33:53.535Z,72
2017-04-28T01:34:54.550Z,71
2017-04-28T01:35:55.315Z,72
2017-04-28T01:36:56.082Z,72
2017-04-28T01:37:56.850Z,72
2017-04-28T01:38:57.615Z,71
2017-04-28T01:39:58.631Z,72
2017-04-28T01:40:59.399Z,72
2017-04-28T01:42:00.163Z,72
2017-04-28T01:43:00.926Z,72
2017-04-28T01:44:01.691Z,72
2017-04-28T01:45:02.706Z,72
2017-04-28T01:46:03.472Z,72
2017-04-28T01:47:04.234Z,72
2017-04-28T01:48:05.003Z,72
2017-04-28T01:49:05.771Z,73
2017-04-28T01:50:06.783Z,73
2017-04-28T01:51:07.550Z,73
2017-04-28T01:52:08.505Z,73
2017-04-28T01:53:09.271Z,73
2017-04-28T01:54:10.032Z,73
2017-04-28T01:55:11.047Z,73
2017-04-28T01:56:11.815Z,73
2017-04-28T01:57:12.578Z,73
2017-04-28T01:58:13.346Z,73
2017-04-28T01:59:14.298Z,73
2017-04-28T02:00:15.314Z,73
2017-04-28T02:01:16.076Z,73
2017-04-28T02:02:16.843Z,73
2017-04-28T02:03:17.606Z,73
2017-04-28T02:04:18.370Z,73
2017-04-28T02:05:19.387Z,73
2017-04-28T02:06:20.152Z,73
2017-04-28T02:07:20.917Z,73
2017-04-28T02:08:21.683Z,73
2017-04-28T02:09:22.444Z,73
2017-04-28T02:10:23.461Z,73
2017-04-28T02:11:24.235Z,73
2017-04-28T02:12:24.998Z,73
2017-04-28T02:13:25.763Z,73
2017-04-28T02:14:26.529Z,73
2017-04-28T02:15:27.543Z,73
2017-04-28T02:16:28.304Z,73
2017-04-28T02:17:29.072Z,73
2017-04-28T02:18:29.838Z,73
2017-04-28T02:19:30.605Z,73
2017-04-28T02:20:31.622Z,73
2017-04-28T02:21:32.389Z,73
2017-04-28T02:22:33.155Z,74
2017-04-28T02:23:33.922Z,73
2017-04-28T02:24:34.686Z,74
2017-04-28T02:25:35.704Z,73
2017-04-28T02:26:36.470Z,73
2017-04-28T02:27:37.232Z,73
2017-04-28T02:28:38.186Z,73
2017-04-28T02:29:38.950Z,73
2017-04-28T02:30:39.964Z,74
2017-04-28T02:31:40.728Z,74
2017-04-28T02:32:41.495Z,74
2017-04-28T02:33:42.261Z,74
2017-04-28T02:34:43.028Z,74
2017-04-28T02:35:44.042Z,74
2017-04-28T02:36:44.805Z,74
2017-04-28T02:37:45.571Z,74
2017-04-28T02:38:46.338Z,74
2017-04-28T02:39:47.103Z,74
2017-04-28T02:40:48.122Z,74
2017-04-28T02:41:48.888Z,74
2017-04-28T02:42:49.656Z,74
2017-04-28T02:43:50.419Z,74
2017-04-28T02:44:51.187Z,74
2017-04-28T02:45:52.205Z,74
2017-04-28T02:46:52.972Z,74
2017-04-28T02:47:53.738Z,74
2017-04-28T02:48:54.501Z,74
2017-04-28T02:49:55.271Z,75
2017-04-28T02:50:56.288Z,74
2017-04-28T02:51:57.053Z,75
2017-04-28T02:52:57.823Z,75
2017-04-28T02:53:58.584Z,74
2017-04-28T02:54:59.355Z,75
2017-04-28T02:56:00.364Z,75
2017-04-28T02:57:01.130Z,74
2017-04-28T02:58:01.898Z,75
2017-04-28T02:59:02.660Z,75
2017-04-28T03:00:03.426Z,75
2017-04-28T03:01:04.442Z,75
2017-04-28T03:02:05.205Z,74
2017-04-28T03:03:05.971Z,75
2017-04-28T03:04:06.739Z,74
2017-04-28T03:05:07.500Z,75
2017-04-28T03:06:08.568Z,75
2017-04-28T03:07:09.337Z,74
2017-04-28T03:08:10.097Z,75
2017-04-28T03:09:10.866Z,75
2017-04-28T03:10:11.631Z,75
2017-04-28T03:11:12.695Z,75
2017-04-28T03:12:13.461Z,75
2017-04-28T03:13:14.228Z,75
2017-04-28T03:14:14.992Z,75
2017-04-28T03:15:15.759Z,75
2017-04-28T03:16:16.774Z,75
2017-04-28T03:17:17.542Z,75
2017-04-28T03:18:18.306Z,75
2017-04-28T03:19:19.069Z,75
2017-04-28T03:20:19.837Z,75
2017-04-28T03:21:20.853Z,75
2017-04-28T03:22:21.619Z,76
2017-04-28T03:23:22.383Z,75
2017-04-28T03:24:23.148Z,75
2017-04-28T03:25:23.913Z,76
2017-04-28T03:26:24.982Z,76
2017-04-28T03:27:25.747Z,76
2017-04-28T03:28:26.508Z,76
2017-04-28T03:29:27.460Z,76
2017-04-28T03:30:28.223Z,77
2017-04-28T03:31:29.240Z,77
2017-04-28T03:32:30.006Z,77
2017-04-28T03:33:30.772Z,77
2017-04-28T03:34:31.542Z,77
2017-04-28T03:35:32.301Z,77
2017-04-28T03:36:33.315Z,77
2017-04-28T03:37:34.081Z,77
2017-04-28T03:38:34.845Z,77
2017-04-28T03:39:35.610Z,77
2017-04-28T03:40:36.375Z,78
2017-04-28T03:41:37.444Z,78
2017-04-28T03:42:38.210Z,78
2017-04-28T03:43:38.975Z,78
2017-04-28T03:44:39.740Z,78
2017-04-28T03:45:40.506Z,78
2017-04-28T03:46:41.521Z,78
2017-04-28T03:47:42.289Z,78
2017-04-28T03:48:43.058Z,79
2017-04-28T03:49:43.824Z,79
2017-04-28T03:50:44.590Z,78
2017-04-28T03:51:45.607Z,79
2017-04-28T03:52:46.375Z,78
2017-04-28T03:53:47.159Z,79
2017-04-28T03:54:47.914Z,79
2017-04-28T03:55:48.867Z,79
2017-04-28T03:56:49.886Z,80
2017-04-28T03:57:50.653Z,80
2017-04-28T03:58:51.421Z,80
2017-04-28T03:59:52.187Z,80
2017-04-28T04:00:52.955Z,80
2017-04-28T04:01:53.968Z,80
2017-04-28T04:02:54.734Z,80
2017-04-28T04:03:55.505Z,80
2017-04-28T04:04:56.269Z,80
2017-04-28T04:05:57.040Z,80
2017-04-28T04:06:58.058Z,81
2017-04-28T04:07:58.826Z,80
2017-04-28T04:08:59.781Z,81
2017-04-28T04:10:00.547Z,81
2017-04-28T04:11:01.317Z,81
2017-04-28T04:12:02.332Z,81
2017-04-28T04:13:03.102Z,81
2017-04-28T04:14:03.870Z,81
2017-04-28T04:15:04.636Z,81
2017-04-28T04:16:05.405Z,81
2017-04-28T04:17:06.423Z,81
2017-04-28T04:18:07.190Z,81
2017-04-28T04:19:07.960Z,81
2017-04-28T04:20:08.727Z,81
2017-04-28T04:21:09.494Z,81
2017-04-28T04:22:10.516Z,82
2017-04-28T04:23:11.286Z,82
2017-04-28T04:24:12.052Z,82
2017-04-28T04:25:12.827Z,82
2017-04-28T04:26:13.591Z,82
2017-04-28T04:27:14.609Z,82
2017-04-28T04:28:15.379Z,82
2017-04-28T04:29:16.146Z,82
2017-04-28T04:30:16.915Z,82
2017-04-28T04:31:17.685Z,81
2017-04-28T04:32:18.704Z,82
2017-04-28T04:33:19.473Z,82
2017-04-28T04:34:20.244Z,81
2017-04-28T04:35:21.014Z,81
2017-04-28T04:36:21.783Z,81
2017-04-28T04:37:22.801Z,81
2017-04-28T04:38:23.569Z,81
2017-04-28T04:39:24.341Z,81
2017-04-28T04:40:25.111Z,80
2017-04-28T04:41:25.879Z,80
2017-04-28T04:42:26.897Z,80
2017-04-28T04:43:27.663Z,79
2017-04-28T04:44:28.435Z,80
2017-04-28T04:45:29.202Z,80
2017-04-28T04:46:29.972Z,80
2017-04-28T04:47:30.992Z,79
2017-04-28T04:48:31.763Z,79
2017-04-28T04:49:32.530Z,80
2017-04-28T04:50:33.300Z,80
2017-04-28T04:51:34.070Z,80
2017-04-28T04:52:35.092Z,79
2017-04-28T04:53:35.858Z,79
2017-04-28T04:54:36.629Z,79
2017-04-28T04:55:37.397Z,79
2017-04-28T04:56:38.167Z,79
2017-04-28T04:57:39.190Z,79
2017-04-28T04:58:39.957Z,79
2017-04-28T04:59:40.727Z,79
2017-04-28T05:00:41.497Z,79
2017-04-28T05:01:42.266Z,79
2017-04-28T05:02:43.285Z,79
2017-04-28T05:03:44.056Z,79
2017-04-28T05:04:44.826Z,79
2017-04-28T05:05:45.597Z,79
2017-04-28T05:06:46.366Z,79
2017-04-28T05:07:47.386Z,79
2017-04-28T05:08:48.157Z,79
2017-04-28T05:09:48.929Z,78
2017-04-28T05:10:49.703Z,79
2017-04-28T05:11:50.468Z,79
2017-04-28T05:12:51.489Z,79
2017-04-28T05:13:52.266Z,79
2017-04-28T05:14:53.030Z,79
2017-04-28T05:15:53.800Z,79
2017-04-28T05:16:54.573Z,78
2017-04-28T05:17:55.596Z,78
2017-04-28T05:18:56.367Z,78
2017-04-28T05:19:57.139Z,78
2017-04-28T05:20:57.909Z,78
2017-04-28T05:21:58.683Z,78
2017-04-28T05:22:59.759Z,77
2017-04-28T05:24:00.524Z,77
2017-04-28T05:25:01.295Z,77
2017-04-28T05:26:02.070Z,77
2017-04-28T05:27:02.843Z,77
2017-04-28T05:28:03.868Z,76
2017-04-28T05:29:04.833Z,76
2017-04-28T05:30:05.606Z,76
2017-04-28T05:31:06.383Z,76
2017-04-28T05:32:07.156Z,76
2017-04-28T05:33:08.181Z,76
2017-04-28T05:34:08.957Z,76
2017-04-28T05:35:09.726Z,76
2017-04-28T05:36:10.499Z,75
2017-04-28T05:37:11.275Z,76
2017-04-28T05:38:12.298Z,75
2017-04-28T05:39:13.074Z,75
2017-04-28T05:40:13.846Z,74
2017-04-28T05:41:14.621Z,74
2017-04-28T05:42:15.391Z,74
2017-04-28T05:43:16.413Z,74
2017-04-28T05:44:17.185Z,74
2017-04-28T05:45:17.957Z,74
2017-04-28T05:46:18.728Z,74
2017-04-28T05:47:19.502Z,73
2017-04-28T05:48:20.522Z,73
2017-04-28T05:49:21.294Z,73
2017-04-28T05:50:22.070Z,73
2017-04-28T05:51:22.835Z,73
2017-04-28T05:52:23.608Z,74
2017-04-28T05:53:24.632Z,73
2017-04-28T05:54:25.406Z,73
2017-04-28T05:55:26.181Z,73
2017-04-28T05:56:26.951Z,73
2017-04-28T05:57:27.907Z,73
2017-04-28T05:58:28.928Z,73
2017-04-28T05:59:29.701Z,73
2017-04-28T06:00:30.470Z,73
2017-04-28T06:01:31.243Z,73
2017-04-28T06:02:32.013Z,73
2017-04-28T06:03:33.036Z,73
2017-04-28T06:04:34.009Z,74
2017-04-28T06:05:34.782Z,74
2017-04-28T06:06:35.553Z,74
2017-04-28T06:07:36.322Z,73
2017-04-28T06:08:37.341Z,73
2017-04-28T06:09:38.111Z,73
2017-04-28T06:10:38.885Z,73
2017-04-28T06:11:39.654Z,73
2017-04-28T06:12:40.429Z,73
2017-04-28T06:13:41.502Z,73
2017-04-28T06:14:42.275Z,73
2017-04-28T06:15:43.046Z,73
2017-04-28T06:16:43.820Z,73
2017-04-28T06:17:44.591Z,73
2017-04-28T06:18:45.611Z,73
2017-04-28T06:19:46.531Z,73
2017-04-28T06:20:47.309Z,73
2017-04-28T06:21:48.084Z,73
2017-04-28T06:22:49.072Z,73
2017-04-28T06:23:50.069Z,73
2017-04-28T06:24:50.843Z,73
2017-04-28T06:25:51.615Z,72
2017-04-28T06:26:52.389Z,72
2017-04-28T06:27:53.162Z,72
2017-04-28T06:28:54.182Z,72
2017-04-28T06:29:54.956Z,72
2017-04-28T06:30:55.727Z,73
2017-04-28T06:31:56.501Z,72
2017-04-28T06:32:57.276Z,72
2017-04-28T06:33:58.301Z,73
2017-04-28T06:34:59.076Z,73
2017-04-28T06:35:59.846Z,73
2017-04-28T06:37:00.619Z,73
2017-04-28T06:38:01.396Z,73
2017-04-28T06:39:02.418Z,73
2017-04-28T06:40:03.192Z,73
2017-04-28T06:41:03.968Z,73
2017-04-28T06:42:04.736Z,73
2017-04-28T06:43:05.508Z,73
2017-04-28T06:44:06.530Z,73
2017-04-28T06:45:07.300Z,73
2017-04-28T06:46:08.074Z,73
2017-04-28T06:47:08.848Z,73
2017-04-28T06:48:09.624Z,73
2017-04-28T06:49:10.647Z,73
2017-04-28T06:50:11.421Z,73
2017-04-28T06:51:12.195Z,73
2017-04-28T06:52:12.969Z,72
2017-04-28T06:53:13.739Z,72
2017-04-28T06:54:14.762Z,73
2017-04-28T06:55:15.535Z,72
2017-04-28T06:56:16.308Z,72
2017-04-28T06:57:17.083Z,73
2017-04-28T06:58:17.857Z,73
2017-04-28T06:59:18.880Z,72
2017-04-28T07:00:19.654Z,72
2017-04-28T07:01:20.426Z,72
2017-04-28T07:02:21.202Z,72
2017-04-28T07:03:21.974Z,72
2017-04-28T07:04:22.998Z,72
2017-04-28T07:05:23.771Z,72
2017-04-28T07:06:24.543Z,72
2017-04-28T07:07:25.318Z,73
2017-04-28T07:08:26.091Z,72
2017-04-28T07:09:27.122Z,73
2017-04-28T07:10:27.894Z,73
2017-04-28T07:11:28.668Z,73
2017-04-28T07:12:29.440Z,72
2017-04-28T07:13:30.215Z,72
2017-04-28T07:14:31.238Z,72
2017-04-28T07:15:32.012Z,78
2017-04-28T07:16:32.785Z,74
2017-04-28T07:17:33.557Z,74
2017-04-28T07:18:34.327Z,72
2017-04-28T07:19:35.351Z,70
2017-04-28T07:20:36.126Z,71
2017-04-28T07:21:36.898Z,71
2017-04-28T07:22:37.674Z,71
2017-04-28T07:23:38.447Z,71
2017-04-28T07:24:39.472Z,71
2017-04-28T07:25:40.247Z,71
2017-04-28T07:26:41.022Z,72
2017-04-28T07:27:41.799Z,71
2017-04-28T07:28:42.568Z,72
2017-04-28T07:29:43.593Z,72
2017-04-28T07:30:44.371Z,72
2017-04-28T07:31:45.144Z,72
2017-04-28T07:32:45.918Z,72
2017-04-28T07:33:46.693Z,72
2017-04-28T07:34:47.718Z,72
2017-04-28T07:35:48.495Z,72
2017-04-28T07:36:49.268Z,72
2017-04-28T07:37:50.042Z,72
2017-04-28T07:38:50.818Z,72
2017-04-28T07:39:51.843Z,72
2017-04-28T07:40:52.617Z,71
2017-04-28T07:41:53.393Z,71
2017-04-28T07:42:54.169Z,71
2017-04-28T07:43:54.943Z,71
2017-04-28T07:44:55.968Z,71
2017-04-28T07:45:56.743Z,71
2017-04-28T07:46:57.518Z,71
2017-04-28T07:47:58.294Z,71
2017-04-28T07:48:59.066Z,71
2017-04-28T07:50:00.091Z,71
2017-04-28T07:51:00.866Z,71
2017-04-28T07:52:01.642Z,71
2017-04-28T07:53:02.417Z,71
2017-04-28T07:54:03.194Z,71
2017-04-28T07:55:04.245Z,71
2017-04-28T07:56:04.996Z,71
2017-04-28T07:57:05.770Z,71
2017-04-28T07:58:06.546Z,72
2017-04-28T07:59:07.320Z,73
2017-04-28T08:00:08.343Z,72
2017-04-28T08:01:09.120Z,72
2017-04-28T08:02:09.892Z,72
2017-04-28T08:03:10.667Z,72
2017-04-28T08:04:11.440Z,73
2017-04-28T08:05:12.467Z,72
2017-04-28T08:06:13.242Z,72
2017-04-28T08:07:14.019Z,72
2017-04-28T08:08:14.792Z,73
2017-04-28T08:09:15.567Z,72
2017-04-28T08:10:16.644Z,71
2017-04-28T08:11:17.418Z,71
2017-04-28T08:12:18.196Z,71
2017-04-28T08:13:18.973Z,72
2017-04-28T08:14:19.749Z,71
2017-04-28T08:15:20.775Z,71
2017-04-28T08:16:21.550Z,70
2017-04-28T08:17:22.325Z,70
2017-04-28T08:18:23.102Z,71
2017-04-28T08:19:23.874Z,70
2017-04-28T08:20:24.949Z,70
2017-04-28T08:21:25.724Z,70
2017-04-28T08:22:26.501Z,70
2017-04-28T08:23:27.277Z,70
2017-04-28T08:24:28.243Z,70
2017-04-28T08:25:29.277Z,70
2017-04-28T08:26:30.046Z,70
2017-04-28T08:27:30.821Z,71
2017-04-28T08:28:31.604Z,70
2017-04-28T08:29:32.376Z,70
2017-04-28T08:30:33.396Z,70
2017-04-28T08:31:34.171Z,70
2017-04-28T08:32:34.948Z,70
2017-04-28T08:33:35.723Z,70
2017-04-28T08:34:36.685Z,69
2017-04-28T08:35:37.726Z,70
2017-04-28T08:36:38.502Z,70
2017-04-28T08:37:39.276Z,70
2017-04-28T08:38:40.050Z,70
2017-04-28T08:39:40.829Z,69
2017-04-28T08:40:41.853Z,69
2017-04-28T08:41:42.818Z,69
2017-04-28T08:42:43.601Z,69
2017-04-28T08:43:44.375Z,69
2017-04-28T08:44:45.153Z,69
2017-04-28T08:45:46.182Z,68
2017-04-28T08:46:46.959Z,68
2017-04-28T08:47:47.736Z,68
2017-04-28T08:48:48.514Z,67
2017-04-28T08:49:49.291Z,67
2017-04-28T08:50:50.314Z,67
2017-04-28T08:51:51.091Z,68
2017-04-28T08:52:51.867Z,67
2017-04-28T08:53:52.644Z,67
2017-04-28T08:54:53.423Z,68
2017-04-28T08:55:54.450Z,67
2017-04-28T08:56:55.224Z,68
2017-04-28T08:57:56.000Z,68
2017-04-28T08:58:56.775Z,68
2017-04-28T08:59:57.553Z,68
2017-04-28T09:00:58.582Z,68
2017-04-28T09:01:59.354Z,68
2017-04-28T09:03:00.132Z,68
2017-04-28T09:04:01.099Z,69
2017-04-28T09:05:01.875Z,69
2017-04-28T09:06:02.901Z,70
2017-04-28T09:07:03.677Z,71
2017-04-28T09:08:04.454Z,71
2017-04-28T09:09:05.230Z,72
2017-04-28T09:10:06.003Z,72
2017-04-28T09:11:07.029Z,73
2017-04-28T09:12:07.804Z,73
2017-04-28T09:13:08.581Z,75
2017-04-28T09:14:09.382Z,73
2017-04-28T09:15:10.157Z,73
2017-04-28T09:16:11.185Z,73
2017-04-28T09:17:11.959Z,74
2017-04-28T09:18:12.734Z,74
2017-04-28T09:19:13.509Z,74
2017-04-28T09:20:14.285Z,74
2017-04-28T09:21:15.313Z,75
2017-04-28T09:22:16.096Z,75
2017-04-28T09:23:16.869Z,75
2017-04-28T09:24:17.643Z,76
2017-04-28T09:25:18.420Z,76
2017-04-28T09:26:19.447Z,75
2017-04-28T09:27:20.221Z,74
2017-04-28T09:28:20.994Z,75
2017-04-28T09:29:21.771Z,76
2017-04-28T09:30:22.545Z,76
2017-04-28T09:31:23.572Z,76
2017-04-28T09:32:24.350Z,75
2017-04-28T09:33:25.128Z,75
2017-04-28T09:34:25.904Z,76
2017-04-28T09:35:26.677Z,75
2017-04-28T09:36:27.754Z,75
2017-04-28T09:37:28.528Z,75
2017-04-28T09:38:29.300Z,76
2017-04-28T09:39:30.077Z,75
2017-04-28T09:40:30.854Z,75
2017-04-28T09:41:31.882Z,74
2017-04-28T09:42:32.657Z,74
2017-04-28T09:43:33.433Z,74
2017-04-28T09:44:34.209Z,75
2017-04-28T09:45:34.984Z,76
2017-04-28T09:46:36.009Z,75
2017-04-28T09:47:36.784Z,74
2017-04-28T09:48:37.564Z,74
2017-04-28T09:49:38.336Z,74
2017-04-28T09:50:39.113Z,75
2017-04-28T09:51:40.137Z,74
2017-04-28T09:52:40.909Z,74
2017-04-28T09:53:41.685Z,74
2017-04-28T09:54:42.461Z,73
2017-04-28T09:55:43.235Z,73
2017-04-28T09:56:44.311Z,73
2017-04-28T09:57:45.086Z,73
2017-04-28T09:58:45.858Z,72
2017-04-28T09:59:46.631Z,72
2017-04-28T10:00:47.408Z,73
2017-04-28T10:01:48.434Z,73
2017-04-28T10:02:49.211Z,73
2017-04-28T10:03:49.988Z,73
2017-04-28T10:04:50.765Z,72
2017-04-28T10:05:51.545Z,73
2017-04-28T10:06:52.570Z,72
2017-04-28T10:07:53.346Z,73
2017-04-28T10:08:54.123Z,72
2017-04-28T10:09:55.088Z,72
2017-04-28T10:10:55.863Z,71
2017-04-28T10:11:56.889Z,71
2017-04-28T10:12:57.667Z,70
2017-04-28T10:13:58.443Z,70
2017-04-28T10:14:59.220Z,71
2017-04-28T10:15:59.997Z,71
2017-04-28T10:17:01.022Z,71
2017-04-28T10:18:01.799Z,71
2017-04-28T10:19:02.575Z,70
2017-04-28T10:20:03.355Z,69
2017-04-28T10:21:04.131Z,69
2017-04-28T10:22:05.155Z,69
2017-04-28T10:23:05.928Z,69
2017-04-28T10:24:06.705Z,69
2017-04-28T10:25:07.482Z,69
2017-04-28T10:26:08.260Z,69
2017-04-28T10:27:09.286Z,69
2017-04-28T10:28:10.061Z,69
2017-04-28T10:29:10.834Z,69
2017-04-28T10:30:11.611Z,69
2017-04-28T10:31:12.389Z,68
2017-04-28T10:32:13.413Z,67
2017-04-28T10:33:14.189Z,67
2017-04-28T10:34:14.969Z,68
2017-04-28T10:35:15.742Z,68
2017-04-28T10:36:16.518Z,67
2017-04-28T10:37:17.550Z,67
2017-04-28T10:38:18.323Z,68
2017-04-28T10:39:19.097Z,67
2017-04-28T10:40:19.876Z,66
2017-04-28T10:41:20.654Z,67
2017-04-28T10:42:21.682Z,67
2017-04-28T10:43:22.457Z,66
2017-04-28T10:44:23.237Z,67
2017-04-28T10:45:24.009Z,67
2017-04-28T10:46:24.787Z,67
2017-04-28T10:47:25.811Z,67
2017-04-28T10:48:26.589Z,67
2017-04-28T10:49:27.369Z,67
2017-04-28T10:50:28.148Z,67
2017-04-28T10:51:28.924Z,67
2017-04-28T10:52:29.950Z,67
2017-04-28T10:53:30.723Z,67
2017-04-28T10:54:31.499Z,67
2017-04-28T10:55:32.277Z,67
2017-04-28T10:56:33.052Z,66
2017-04-28T10:57:34.262Z,67
2017-04-28T10:58:35.043Z,66
2017-04-28T10:59:35.813Z,65
2017-04-28T11:00:36.592Z,65
2017-04-28T11:01:37.366Z,66
2017-04-28T11:02:39.595Z,65
2017-04-28T11:03:40.373Z,65
2017-04-28T11:04:41.151Z,65
2017-04-28T11:05:41.933Z,65
2017-04-28T11:06:42.714Z,65
2017-04-28T11:07:43.741Z,64
2017-04-28T11:08:44.520Z,64
2017-04-28T11:09:45.298Z,64
2017-04-28T11:10:46.077Z,64
2017-04-28T11:11:46.853Z,64
2017-04-28T11:12:47.881Z,64
2017-04-28T11:13:48.662Z,64
2017-04-28T11:14:49.446Z,64
2017-04-28T11:15:50.225Z,64
2017-04-28T11:16:51.005Z,63
2017-04-28T11:17:52.038Z,63
2017-04-28T11:18:52.821Z,62
2017-04-28T11:19:53.601Z,61
2017-04-28T11:20:54.384Z,62
2017-04-28T11:21:55.167Z,61
2017-04-28T11:22:56.201Z,61
2017-04-28T11:23:57.171Z,61
2017-04-28T11:24:57.951Z,61
2017-04-28T11:25:58.734Z,60
2017-04-28T11:26:59.518Z,60
2017-04-28T11:28:00.551Z,59
2017-04-28T11:29:01.335Z,59
2017-04-28T11:30:02.119Z,58
2017-04-28T11:31:02.904Z,57
2017-04-28T11:32:03.687Z,57
2017-04-28T11:33:04.725Z,56
2017-04-28T11:34:05.510Z,56
2017-04-28T11:35:06.299Z,53
2017-04-28T11:36:07.087Z,53
2017-04-28T11:37:07.874Z,52
2017-04-28T11:38:08.965Z,51
2017-04-28T11:39:09.756Z,51
2017-04-28T11:40:10.551Z,52
2017-04-28T11:41:11.345Z,52
2017-04-28T11:42:12.135Z,52
2017-04-28T11:43:13.176Z,53
2017-04-28T11:44:13.972Z,52
2017-04-28T11:45:14.764Z,53
2017-04-28T11:46:15.558Z,51
2017-04-28T11:47:16.348Z,50
2017-04-28T11:48:17.390Z,48
2017-04-28T11:49:18.180Z,47
2017-04-28T11:50:18.971Z,48
2017-04-28T11:51:19.765Z,47
2017-04-28T11:52:20.561Z,48
2017-04-28T11:53:21.605Z,47
2017-04-28T11:54:22.403Z,47
2017-04-28T11:55:23.191Z,45
2017-04-28T11:56:23.990Z,46
2017-04-28T11:57:24.784Z,46
2017-04-28T11:58:25.828Z,47
2017-04-28T11:59:26.620Z,48
2017-04-28T12:00:27.412Z,47
2017-04-28T12:01:28.206Z,47
2017-04-28T12:02:29.000Z,48
2017-04-28T12:03:30.041Z,48
2017-04-28T12:04:30.834Z,49
2017-04-28T12:05:31.625Z,49
2017-04-28T12:06:32.420Z,48
2017-04-28T12:07:33.224Z,46
2017-04-28T12:08:34.255Z,44
2017-04-28T12:09:35.047Z,43
2017-04-28T12:10:36.033Z,43
2017-04-28T12:11:36.836Z,44
2017-04-28T12:12:37.623Z,45
2017-04-28T12:13:38.672Z,46
2017-04-28T12:14:39.464Z,46
2017-04-28T12:15:40.258Z,45
2017-04-28T12:16:41.051Z,44
2017-04-28T12:17:41.845Z,42
2017-04-28T12:18:42.891Z,43
2017-04-28T12:19:43.682Z,43
2017-04-28T12:20:44.472Z,45
2017-04-28T12:21:45.264Z,46
2017-04-28T12:22:46.057Z,45
2017-04-28T12:23:47.097Z,45
2017-04-28T12:24:47.891Z,45
2017-04-28T12:25:48.687Z,44
2017-04-28T12:26:49.476Z,44
2017-04-28T12:27:50.271Z,45
2017-04-28T12:28:51.316Z,45
2017-04-28T12:29:52.107Z,44
2017-04-28T12:30:52.898Z,43
2017-04-28T12:31:53.690Z,44
2017-04-28T12:32:54.487Z,44
2017-04-28T12:33:55.523Z,45
2017-04-28T12:34:56.314Z,45
2017-04-28T12:35:57.105Z,44
2017-04-28T12:36:57.890Z,46
2017-04-28T12:37:58.679Z,46
2017-04-28T12:38:59.719Z,46
2017-04-28T12:40:00.502Z,46
2017-04-28T12:41:01.292Z,46
2017-04-28T12:42:02.087Z,46
2017-04-28T12:43:02.877Z,47
2017-04-28T12:44:03.918Z,47
2017-04-28T12:45:04.707Z,47
2017-04-28T12:46:05.498Z,48
2017-04-28T12:47:06.289Z,48
2017-04-28T12:48:07.077Z,48
2017-04-28T12:49:08.121Z,49
2017-04-28T12:50:08.908Z,49
2017-04-28T12:51:09.696Z,49
2017-04-28T12:52:10.486Z,49
2017-04-28T12:53:11.279Z,48
2017-04-28T12:54:12.318Z,48
2017-04-28T12:55:13.114Z,47
2017-04-28T12:56:13.906Z,46
2017-04-28T12:57:14.699Z,44
2017-04-28T12:58:15.489Z,43
2017-04-28T12:59:16.539Z,43
2017-04-28T13:00:17.335Z,44
2017-04-28T13:01:18.129Z,44
2017-04-28T13:02:18.922Z,41
2017-04-28T13:03:19.711Z,41
2017-04-28T13:04:20.750Z,40
2017-04-28T13:05:21.536Z,41
2017-04-28T13:06:22.327Z,42
2017-04-28T13:07:23.113Z,42
2017-04-28T13:08:23.904Z,41
2017-04-28T13:09:24.942Z,41
2017-04-28T13:10:25.735Z,42
2017-04-28T13:11:26.522Z,43
2017-04-28T13:12:27.313Z,43
2017-04-28T13:13:28.107Z,43
2017-04-28T13:14:29.142Z,44
2017-04-28T13:15:29.934Z,44
2017-04-28T13:16:30.728Z,43
2017-04-28T13:17:31.522Z,43
2017-04-28T13:18:32.310Z,43
2017-04-28T13:19:33.352Z,43
2017-04-28T13:20:34.145Z,43
2017-04-28T13:21:34.939Z,44
2017-04-28T13:22:35.729Z,44
2017-04-28T13:23:36.521Z,43
2017-04-28T13:24:37.560Z,44
2017-04-28T13:25:38.352Z,45
2017-04-28T13:26:39.143Z,45
2017-04-28T13:27:39.935Z,46
2017-04-28T13:28:40.726Z,46
2017-04-28T13:29:41.768Z,44
2017-04-28T13:30:42.557Z,45
2017-04-28T13:31:43.347Z,45
2017-04-28T13:32:44.133Z,45
2017-04-28T13:33:44.919Z,44
2017-04-28T13:34:46.008Z,44
2017-04-28T13:35:46.798Z,45
2017-04-28T13:36:47.589Z,46
2017-04-28T13:37:48.379Z,45
2017-04-28T13:38:49.166Z,46
2017-04-28T13:39:50.254Z,46
2017-04-28T13:40:51.038Z,46
2017-04-28T13:41:51.821Z,46
2017-04-28T13:42:52.606Z,47
2017-04-28T13:43:53.390Z,47
2017-04-28T13:44:54.423Z,47
2017-04-28T13:45:55.234Z,47
2017-04-28T13:46:56.027Z,46
2017-04-28T13:47:56.812Z,47
2017-04-28T13:48:57.593Z,47
2017-04-28T13:49:58.627Z,47
2017-04-28T13:50:59.410Z,48
2017-04-28T13:52:00.194Z,50
2017-04-28T13:53:00.978Z,50
2017-04-28T13:54:01.759Z,50
2017-04-28T13:55:02.789Z,50
2017-04-28T13:56:03.569Z,51
2017-04-28T13:57:04.349Z,52
2017-04-28T13:58:05.130Z,52
2017-04-28T13:59:06.105Z,52
2017-04-28T14:00:07.136Z,52
2017-04-28T14:01:07.914Z,52
2017-04-28T14:02:08.694Z,52
2017-04-28T14:03:09.476Z,53
2017-04-28T14:04:10.259Z,53
2017-04-28T14:05:11.294Z,53
2017-04-28T14:06:12.068Z,54
2017-04-28T14:07:12.855Z,54
2017-04-28T14:08:13.629Z,55
2017-04-28T14:09:14.408Z,54
2017-04-28T14:10:15.438Z,54
2017-04-28T14:11:16.216Z,54
2017-04-28T14:12:16.997Z,54
2017-04-28T14:13:17.778Z,54
2017-04-28T14:14:18.559Z,54
2017-04-28T14:15:19.593Z,54
2017-04-28T14:16:20.374Z,54
2017-04-28T14:17:21.187Z,54
2017-04-28T14:18:21.980Z,53
2017-04-28T14:19:22.762Z,53
2017-04-28T14:20:23.846Z,53
2017-04-28T14:21:24.630Z,52
2017-04-28T14:22:25.411Z,52
2017-04-28T14:23:26.192Z,52
2017-04-28T14:24:26.975Z,52
2017-04-28T14:25:28.007Z,52
2017-04-28T14:26:28.978Z,52
2017-04-28T14:27:29.758Z,51